createdAt,value
2022-11-26T00:02:25.472Z,12.47
2022-11-26T00:04:53.245Z,12.55
2022-11-26T00:07:23.160Z,12.62
2022-11-26T00:09:50.445Z,12.70
2022-11-26T00:12:28.046Z,12.81
2022-11-26T00:14:54.738Z,12.88
2022-11-26T00:17:21.981Z,12.89
2022-11-26T00:19:48.924Z,12.82
2022-11-26T00:22:21.584Z,12.83
2022-11-26T00:24:49.130Z,12.76
2022-11-26T00:27:15.850Z,12.73
2022-11-26T00:29:42.614Z,12.66
2022-11-26T00:32:26.127Z,12.60
2022-11-26T00:34:53.863Z,12.66
2022-11-26T00:37:32.675Z,12.63
2022-11-26T00:39:59.418Z,12.53
2022-11-26T00:42:26.074Z,12.19
2022-11-26T00:44:52.708Z,12.15
2022-11-26T00:47:19.318Z,12.03
2022-11-26T00:49:45.912Z,11.78
2022-11-26T00:52:33.393Z,11.68
2022-11-26T00:55:05.623Z,11.46
2022-11-26T00:57:32.537Z,11.61
2022-11-26T00:59:59.178Z,11.47
2022-11-26T01:02:25.805Z,11.52
2022-11-26T01:04:52.439Z,11.46
2022-11-26T01:07:19.105Z,11.47
2022-11-26T01:09:47.350Z,11.48
2022-11-26T01:12:15.383Z,11.58
2022-11-26T01:14:42.216Z,11.48
2022-11-26T01:17:11.895Z,11.44
2022-11-26T01:19:38.514Z,11.48
2022-11-26T01:22:05.274Z,11.48
2022-11-26T01:24:32.001Z,11.54
2022-11-26T01:26:58.710Z,11.56
2022-11-26T01:29:25.347Z,11.70
2022-11-26T01:31:52.028Z,11.65
2022-11-26T01:34:18.735Z,11.75
2022-11-26T01:36:45.422Z,11.79
2022-11-26T01:39:19.757Z,11.83
2022-11-26T01:42:22.748Z,11.94
2022-11-26T01:44:49.457Z,11.84
2022-11-26T01:47:25.052Z,11.82
2022-11-26T01:50:29.341Z,11.98
2022-11-26T01:53:01.042Z,11.99
2022-11-26T01:55:35.813Z,12.09
2022-11-26T01:58:06.476Z,12.15
2022-11-26T02:00:33.364Z,12.10
2022-11-26T02:03:00.864Z,12.12
2022-11-26T02:05:31.855Z,12.02
2022-11-26T02:07:58.716Z,12.05
2022-11-26T02:10:25.357Z,11.98
2022-11-26T02:12:52.049Z,11.99
2022-11-26T02:15:18.948Z,12.09
2022-11-26T02:17:55.542Z,12.13
2022-11-26T02:20:39.121Z,12.22
2022-11-26T02:23:17.835Z,12.28
2022-11-26T02:26:21.437Z,12.30
2022-11-26T02:29:03.039Z,12.25
2022-11-26T02:31:32.368Z,12.24
2022-11-26T02:34:18.032Z,12.23
2022-11-26T02:36:59.654Z,12.31
2022-11-26T02:39:28.984Z,12.30
2022-11-26T02:41:58.648Z,12.31
2022-11-26T02:44:40.639Z,12.29
2022-11-26T02:47:12.075Z,12.20
2022-11-26T02:49:41.309Z,12.08
2022-11-26T02:52:10.973Z,12.10
2022-11-26T02:54:40.260Z,12.03
2022-11-26T02:57:12.291Z,11.91
2022-11-26T02:59:39.809Z,11.63
2022-11-26T03:02:35.767Z,11.10
2022-11-26T03:05:03.810Z,11.10
2022-11-26T03:07:32.294Z,11.04
2022-11-26T03:10:01.233Z,10.86
2022-11-26T03:12:29.372Z,10.95
2022-11-26T03:14:56.076Z,10.83
2022-11-26T03:17:22.970Z,10.54
2022-11-26T03:19:49.614Z,10.54
2022-11-26T03:22:16.946Z,10.52
2022-11-26T03:24:43.936Z,10.54
2022-11-26T03:27:10.755Z,10.77
2022-11-26T03:29:37.329Z,10.90
2022-11-26T03:32:04.207Z,10.92
2022-11-26T03:34:30.894Z,10.90
2022-11-26T03:36:57.514Z,10.99
2022-11-26T03:39:24.589Z,11.12
2022-11-26T03:41:51.219Z,10.96
2022-11-26T03:44:17.896Z,10.91
2022-11-26T03:46:44.555Z,10.93
2022-11-26T03:49:11.231Z,10.86
2022-11-26T03:51:37.990Z,11.01
2022-11-26T03:54:04.691Z,10.89
2022-11-26T03:56:31.309Z,10.88
2022-11-26T03:58:58.204Z,11.01
2022-11-26T04:01:25.634Z,11.07
2022-11-26T04:03:52.589Z,10.84
2022-11-26T04:06:19.208Z,10.85
2022-11-26T04:08:45.869Z,10.98
2022-11-26T04:11:12.478Z,11.10
2022-11-26T04:13:39.191Z,11.05
2022-11-26T04:16:06.374Z,11.13
2022-11-26T04:18:33.292Z,11.03
2022-11-26T04:21:00.109Z,10.86
2022-11-26T04:23:26.853Z,11.01
2022-11-26T04:25:53.694Z,11.06
2022-11-26T04:28:20.308Z,11.06
2022-11-26T04:30:46.937Z,11.03
2022-11-26T04:33:14.056Z,10.90
2022-11-26T04:35:40.681Z,11.10
2022-11-26T04:38:07.296Z,10.99
2022-11-26T04:40:33.973Z,11.04
2022-11-26T04:43:00.600Z,11.00
2022-11-26T04:45:27.507Z,11.01
2022-11-26T04:47:54.599Z,11.04
2022-11-26T04:50:21.425Z,11.01
2022-11-26T04:52:50.946Z,10.98
2022-11-26T04:55:18.308Z,11.05
2022-11-26T04:57:48.844Z,11.10
2022-11-26T05:00:18.241Z,10.97
2022-11-26T05:02:45.716Z,11.06
2022-11-26T05:05:13.169Z,11.03
2022-11-26T05:07:40.236Z,11.02
2022-11-26T05:10:08.779Z,10.93
2022-11-26T05:12:35.703Z,10.95
2022-11-26T05:15:02.968Z,10.95
2022-11-26T05:17:29.677Z,11.00
2022-11-26T05:19:56.290Z,11.02
2022-11-26T05:22:23.117Z,11.07
2022-11-26T05:24:49.852Z,11.10
2022-11-26T05:27:16.460Z,11.07
2022-11-26T05:29:43.051Z,11.02
2022-11-26T05:32:10.165Z,11.00
2022-11-26T05:34:37.227Z,10.99
2022-11-26T05:37:03.975Z,11.07
2022-11-26T05:39:30.642Z,10.93
2022-11-26T05:41:57.286Z,10.99
2022-11-26T05:44:23.920Z,10.80
2022-11-26T05:46:50.695Z,10.64
2022-11-26T05:49:17.539Z,10.48
2022-11-26T05:51:44.227Z,10.20
2022-11-26T05:54:14.938Z,10.21
2022-11-26T05:56:42.943Z,10.16
2022-11-26T05:59:10.240Z,10.28
2022-11-26T06:01:37.214Z,10.28
2022-11-26T06:04:04.159Z,10.21
2022-11-26T06:06:30.899Z,10.43
2022-11-26T06:08:57.602Z,10.19
2022-11-26T06:11:24.346Z,10.21
2022-11-26T06:13:50.952Z,10.24
2022-11-26T06:16:17.723Z,9.97
2022-11-26T06:18:44.410Z,9.99
2022-11-26T06:21:11.548Z,10.01
2022-11-26T06:23:38.177Z,10.16
2022-11-26T06:26:12.073Z,9.99
2022-11-26T06:28:39.690Z,10.10
2022-11-26T06:31:09.118Z,10.04
2022-11-26T06:33:36.665Z,10.02
2022-11-26T06:36:05.620Z,9.89
2022-11-26T06:38:32.669Z,9.93
2022-11-26T06:41:05.557Z,9.83
2022-11-26T06:43:32.923Z,9.83
2022-11-26T06:46:07.800Z,9.82
2022-11-26T06:48:35.878Z,9.94
2022-11-26T06:51:07.782Z,9.97
2022-11-26T06:53:34.758Z,10.13
2022-11-26T06:56:02.953Z,10.25
2022-11-26T06:58:29.711Z,10.29
2022-11-26T07:00:57.085Z,10.31
2022-11-26T07:03:28.021Z,10.43
2022-11-26T07:05:57.212Z,10.49
2022-11-26T07:08:23.828Z,10.55
2022-11-26T07:10:50.543Z,10.42
2022-11-26T07:13:17.214Z,10.64
2022-11-26T07:15:43.906Z,10.59
2022-11-26T07:18:10.576Z,10.63
2022-11-26T07:20:37.712Z,10.69
2022-11-26T07:23:04.704Z,10.64
2022-11-26T07:25:31.473Z,10.57
2022-11-26T07:27:58.281Z,10.54
2022-11-26T07:30:25.584Z,10.53
2022-11-26T07:32:52.231Z,10.48
2022-11-26T07:35:18.861Z,10.59
2022-11-26T07:37:45.706Z,10.67
2022-11-26T07:40:12.858Z,10.64
2022-11-26T07:42:39.464Z,10.64
2022-11-26T07:45:06.634Z,10.60
2022-11-26T07:47:33.473Z,10.64
2022-11-26T07:50:00.344Z,10.71
2022-11-26T07:52:27.067Z,10.97
2022-11-26T07:54:53.629Z,11.08
2022-11-26T07:57:22.286Z,11.36
2022-11-26T07:59:49.217Z,11.49
2022-11-26T08:02:16.658Z,11.59
2022-11-26T08:04:43.322Z,11.92
2022-11-26T08:07:10.004Z,12.30
2022-11-26T08:09:36.785Z,12.48
2022-11-26T08:12:03.666Z,12.57
2022-11-26T08:14:30.338Z,12.50
2022-11-26T08:16:57.684Z,12.60
2022-11-26T08:19:24.532Z,12.62
2022-11-26T08:21:51.120Z,12.53
2022-11-26T08:24:20.109Z,12.69
2022-11-26T08:26:46.958Z,12.78
2022-11-26T08:29:14.457Z,12.91
2022-11-26T08:31:45.670Z,12.89
2022-11-26T08:34:15.134Z,12.93
2022-11-26T08:36:42.048Z,13.04
2022-11-26T08:39:12.026Z,13.09
2022-11-26T08:41:38.746Z,13.11
2022-11-26T08:44:07.215Z,13.27
2022-11-26T08:46:36.915Z,13.25
2022-11-26T08:49:04.415Z,13.27
2022-11-26T08:51:31.100Z,13.46
2022-11-26T08:53:57.727Z,13.44
2022-11-26T08:56:24.842Z,13.26
2022-11-26T08:58:51.800Z,13.41
2022-11-26T09:01:24.780Z,13.62
2022-11-26T09:03:53.158Z,13.46
2022-11-26T09:06:21.544Z,13.52
2022-11-26T09:09:07.280Z,13.73
2022-11-26T09:11:36.624Z,13.21
2022-11-26T09:14:04.196Z,13.27
2022-11-26T09:16:31.957Z,13.27
2022-11-26T09:19:03.376Z,13.07
2022-11-26T09:21:30.031Z,13.14
2022-11-26T09:23:56.715Z,13.00
2022-11-26T09:26:24.389Z,13.09
2022-11-26T09:28:51.869Z,12.99
2022-11-26T09:31:19.291Z,12.92
2022-11-26T09:33:46.185Z,13.00
2022-11-26T09:36:14.871Z,13.06
2022-11-26T09:38:42.876Z,12.94
2022-11-26T09:41:37.056Z,13.06
2022-11-26T09:44:25.375Z,13.05
2022-11-26T09:47:12.453Z,13.03
2022-11-26T09:49:57.653Z,12.99
2022-11-26T09:52:28.609Z,13.15
2022-11-26T09:55:11.691Z,13.14
2022-11-26T09:57:44.639Z,13.15
2022-11-26T10:00:23.979Z,13.23
2022-11-26T10:02:55.708Z,13.15
2022-11-26T10:05:34.385Z,13.16
2022-11-26T10:08:39.448Z,13.20
2022-11-26T10:11:33.112Z,13.28
2022-11-26T10:14:21.185Z,13.36
2022-11-26T10:16:59.550Z,13.45
2022-11-26T10:19:38.187Z,13.54
2022-11-26T10:22:21.677Z,13.59
2022-11-26T10:24:50.323Z,13.72
2022-11-26T10:27:25.419Z,13.70
2022-11-26T10:29:57.397Z,13.76
2022-11-26T10:32:27.338Z,13.68
2022-11-26T10:34:56.632Z,13.80
2022-11-26T10:37:25.696Z,13.90
2022-11-26T10:40:24.859Z,13.85
2022-11-26T10:43:09.746Z,13.88
2022-11-26T10:45:42.041Z,13.99
2022-11-26T11:07:54.920Z,15.43
2022-11-26T11:10:24.361Z,15.43
2022-11-26T11:13:11.427Z,15.62
2022-11-26T11:15:40.394Z,15.48
2022-11-26T11:18:18.521Z,15.43
2022-11-26T11:21:04.999Z,15.66
2022-11-26T11:24:07.033Z,15.87
2022-11-26T11:26:28.416Z,15.96
2022-11-26T11:28:55.741Z,16.12
2022-11-26T11:31:24.906Z,15.86
2022-11-26T11:34:10.995Z,15.97
2022-11-26T11:36:37.719Z,15.89
2022-11-26T11:39:05.355Z,16.08
2022-11-26T11:41:48.719Z,16.18
2022-11-26T11:44:25.430Z,16.15
2022-11-26T11:47:15.047Z,16.17
2022-11-26T11:49:49.356Z,16.27
2022-11-26T11:52:20.090Z,16.35
2022-11-26T11:55:03.205Z,16.27
2022-11-26T11:57:53.818Z,16.42
2022-11-26T12:00:37.047Z,16.65
2022-11-26T12:03:51.563Z,16.90
2022-11-26T12:06:42.900Z,17.08
2022-11-26T12:09:40.644Z,17.13
2022-11-26T12:12:16.439Z,17.30
2022-11-26T12:14:49.364Z,17.33
2022-11-26T12:17:43.814Z,17.22
2022-11-26T12:20:17.489Z,17.34
2022-11-26T12:23:23.024Z,17.38
2022-11-26T12:26:14.120Z,17.35
2022-11-26T12:28:51.322Z,17.44
2022-11-26T12:31:41.991Z,17.44
2022-11-26T12:34:24.766Z,17.48
2022-11-26T12:36:57.180Z,17.52
2022-11-26T12:40:05.352Z,17.90
2022-11-26T12:42:50.736Z,18.13
2022-11-26T12:45:51.264Z,18.21
2022-11-26T12:48:17.977Z,18.26
2022-11-26T12:50:52.043Z,18.09
2022-11-26T12:53:39.974Z,18.08
2022-11-26T12:56:13.859Z,18.17
2022-11-26T12:59:07.519Z,18.17
2022-11-26T13:01:34.393Z,18.30
2022-11-26T13:04:29.845Z,18.19
2022-11-26T13:07:06.442Z,18.16
2022-11-26T13:09:51.687Z,18.17
2022-11-26T13:12:46.804Z,18.20
2022-11-26T13:15:58.546Z,18.10
2022-11-26T13:18:34.388Z,18.05
2022-11-26T13:21:09.815Z,18.02
2022-11-26T13:23:39.439Z,18.14
2022-11-26T13:26:20.361Z,17.99
2022-11-26T13:29:09.004Z,18.07
2022-11-26T13:32:07.138Z,18.28
2022-11-26T13:34:56.780Z,18.33
2022-11-26T13:37:29.326Z,18.46
2022-11-26T13:40:29.641Z,18.60
2022-11-26T13:43:11.461Z,18.63
2022-11-26T13:45:45.577Z,18.63
2022-11-26T13:48:19.918Z,18.51
2022-11-26T13:50:54.983Z,18.58
2022-11-26T13:53:36.622Z,18.61
2022-11-26T13:56:07.680Z,18.48
2022-11-26T13:58:48.004Z,18.54
2022-11-26T14:01:36.762Z,18.64
2022-11-26T14:04:07.813Z,18.71
2022-11-26T14:06:35.220Z,18.74
2022-11-26T14:09:02.866Z,18.80
2022-11-26T14:11:41.691Z,18.88
2022-11-26T14:14:26.655Z,18.78
2022-11-26T14:17:02.575Z,18.59
2022-11-26T14:19:41.208Z,18.72
2022-11-26T14:22:29.569Z,18.80
2022-11-26T14:25:01.899Z,18.89
2022-11-26T14:27:33.306Z,18.88
2022-11-26T14:30:00.143Z,18.86
2022-11-26T14:32:32.282Z,18.94
2022-11-26T14:34:59.200Z,18.92
2022-11-26T14:37:30.619Z,18.87
2022-11-26T14:40:01.584Z,18.93
2022-11-26T14:42:29.459Z,18.98
2022-11-26T14:45:06.945Z,18.90
2022-11-26T14:47:33.922Z,18.83
2022-11-26T14:50:04.715Z,18.86
2022-11-26T14:52:37.121Z,18.77
2022-11-26T14:55:08.545Z,18.77
2022-11-26T14:57:38.174Z,18.71
2022-11-26T15:00:27.679Z,18.76
2022-11-26T15:02:54.760Z,18.63
2022-11-26T15:05:24.805Z,18.70
2022-11-26T15:08:24.285Z,18.75
2022-11-26T15:11:11.867Z,18.75
2022-11-26T15:13:43.031Z,18.56
2022-11-26T15:16:42.816Z,18.57
2022-11-26T15:19:15.316Z,18.53
2022-11-26T15:21:42.080Z,18.47
2022-11-26T15:24:09.144Z,18.45
2022-11-26T15:26:36.866Z,18.39
2022-11-26T15:29:27.951Z,18.30
2022-11-26T15:31:54.869Z,18.33
2022-11-26T15:34:21.912Z,18.32
2022-11-26T15:36:48.667Z,18.30
2022-11-26T15:39:30.798Z,18.33
2022-11-26T15:42:02.049Z,18.34
2022-11-26T15:44:31.847Z,18.27
2022-11-26T15:47:00.659Z,18.28
2022-11-26T15:49:40.473Z,18.27
2022-11-26T15:52:13.309Z,18.25
2022-11-26T15:55:11.412Z,18.22
2022-11-26T15:57:39.302Z,18.16
2022-11-26T16:00:36.999Z,17.99
2022-11-26T16:03:05.133Z,17.96
2022-11-26T16:05:38.893Z,17.84
2022-11-26T16:08:30.317Z,17.87
2022-11-26T16:11:05.069Z,17.84
2022-11-26T16:13:33.068Z,17.82
2022-11-26T16:16:12.829Z,17.82
2022-11-26T16:18:54.193Z,17.80
2022-11-26T16:21:25.470Z,17.76
2022-11-26T16:24:00.703Z,17.67
2022-11-26T16:26:28.072Z,17.61
2022-11-26T16:28:55.061Z,17.62
2022-11-26T16:31:22.718Z,17.58
2022-11-26T16:33:49.576Z,17.56
2022-11-26T16:36:22.165Z,17.54
2022-11-26T16:38:51.579Z,17.51
2022-11-26T16:41:21.207Z,17.50
2022-11-26T16:43:49.277Z,17.46
2022-11-26T16:46:17.740Z,17.41
2022-11-26T16:48:45.911Z,17.32
2022-11-26T16:51:13.296Z,17.31
2022-11-26T16:53:40.420Z,17.27
2022-11-26T16:58:49.801Z,17.20
2022-11-26T17:01:16.843Z,17.13
2022-11-26T17:03:44.133Z,17.07
2022-11-26T17:06:25.632Z,17.06
2022-11-26T17:08:55.625Z,17.00
2022-11-26T17:11:23.344Z,16.96
2022-11-26T17:13:50.156Z,16.93
2022-11-26T17:16:20.182Z,16.91
2022-11-26T17:18:47.875Z,16.83
2022-11-26T17:21:15.018Z,16.82
2022-11-26T17:23:41.724Z,16.77
2022-11-26T17:26:19.674Z,16.75
2022-11-26T17:28:47.099Z,16.76
2022-11-26T17:31:14.307Z,16.78
2022-11-26T17:33:41.021Z,16.70
2022-11-26T17:36:22.273Z,16.72
2022-11-26T17:38:49.979Z,16.67
2022-11-26T17:41:17.512Z,16.67
2022-11-26T17:43:44.272Z,16.65
2022-11-26T17:46:21.750Z,16.63
2022-11-26T17:48:49.993Z,16.60
2022-11-26T17:51:18.188Z,16.56
2022-11-26T17:53:45.041Z,16.46
2022-11-26T17:56:21.888Z,16.49
2022-11-26T17:58:48.821Z,16.43
2022-11-26T18:01:16.766Z,16.47
2022-11-26T18:03:44.270Z,16.48
2022-11-26T18:06:19.347Z,16.49
2022-11-26T18:08:46.135Z,16.49
2022-11-26T18:11:15.117Z,16.50
2022-11-26T18:13:41.793Z,16.47
2022-11-26T18:16:08.635Z,16.45
2022-11-26T18:18:35.232Z,16.44
2022-11-26T18:21:02.075Z,16.44
2022-11-26T18:23:29.968Z,16.42
2022-11-26T18:25:56.622Z,16.39
2022-11-26T18:28:23.271Z,16.33
2022-11-26T18:30:50.107Z,16.30
2022-11-26T18:33:16.885Z,16.25
2022-11-26T18:35:43.742Z,16.14
2022-11-26T18:38:11.581Z,16.04
2022-11-26T18:40:38.643Z,15.93
2022-11-26T18:43:05.488Z,15.89
2022-11-26T18:45:32.676Z,15.91
2022-11-26T18:48:00.417Z,15.84
2022-11-26T18:50:27.349Z,15.85
2022-11-26T18:52:56.197Z,15.79
2022-11-26T18:55:22.787Z,15.75
2022-11-26T18:57:49.413Z,15.82
2022-11-26T19:00:16.342Z,15.67
2022-11-26T19:02:43.102Z,15.56
2022-11-26T19:05:09.919Z,15.46
2022-11-26T19:07:37.240Z,15.44
2022-11-26T19:10:04.591Z,15.48
2022-11-26T19:12:31.565Z,15.38
2022-11-26T19:14:58.310Z,15.31
2022-11-26T19:17:24.888Z,15.18
2022-11-26T19:19:51.530Z,15.22
2022-11-26T19:22:18.178Z,15.13
2022-11-26T19:24:44.794Z,15.12
2022-11-26T19:27:13.046Z,15.20
2022-11-26T19:29:39.968Z,15.15
2022-11-26T19:32:06.851Z,15.18
2022-11-26T19:34:33.459Z,15.14
2022-11-26T19:37:00.102Z,15.26
2022-11-26T19:39:26.733Z,15.27
2022-11-26T19:41:53.457Z,15.23
2022-11-26T19:44:20.109Z,15.25
2022-11-26T19:46:48.131Z,15.11
2022-11-26T19:49:15.308Z,15.19
2022-11-26T19:51:42.391Z,15.09
2022-11-26T19:54:09.185Z,15.03
2022-11-26T19:56:36.828Z,15.11
2022-11-26T19:59:03.741Z,15.11
2022-11-26T20:01:32.648Z,15.16
2022-11-26T20:04:01.960Z,15.07
2022-11-26T20:06:31.074Z,14.96
2022-11-26T20:09:01.031Z,14.96
2022-11-26T20:11:29.059Z,14.88
2022-11-26T20:13:56.840Z,14.97
2022-11-26T20:16:26.377Z,14.91
2022-11-26T20:18:53.456Z,14.95
2022-11-26T20:21:23.554Z,14.91
2022-11-26T20:23:51.819Z,14.90
2022-11-26T20:26:25.376Z,14.74
2022-11-26T20:28:53.154Z,14.80
2022-11-26T20:31:23.969Z,14.82
2022-11-26T20:33:53.335Z,14.67
2022-11-26T20:36:23.001Z,14.76
2022-11-26T20:38:54.949Z,14.68
2022-11-26T20:41:23.272Z,14.71
2022-11-26T20:43:54.931Z,14.67
2022-11-26T20:46:26.240Z,14.70
2022-11-26T20:48:53.098Z,14.70
2022-11-26T20:51:21.847Z,14.56
2022-11-26T20:53:50.601Z,14.54
2022-11-26T20:56:19.647Z,14.42
2022-11-26T20:58:46.559Z,14.44
2022-11-26T21:01:27.892Z,14.45
2022-11-26T21:03:55.471Z,14.38
2022-11-26T21:06:29.367Z,14.44
2022-11-26T21:09:01.398Z,14.31
2022-11-26T21:11:28.831Z,14.31
2022-11-26T21:13:55.471Z,14.38
2022-11-26T21:16:23.400Z,14.39
2022-11-26T21:18:53.379Z,14.38
2022-11-26T21:21:20.249Z,14.34
2022-11-26T21:23:46.987Z,14.29
2022-11-26T21:26:19.804Z,14.19
2022-11-26T21:28:51.664Z,14.19
2022-11-26T21:31:19.811Z,14.06
2022-11-26T21:33:47.862Z,14.13
2022-11-26T21:36:16.467Z,14.09
2022-11-26T21:38:47.058Z,14.12
2022-11-26T21:41:13.986Z,14.05
2022-11-26T21:43:41.186Z,14.10
2022-11-26T21:46:10.705Z,14.20
2022-11-26T21:48:37.556Z,14.16
2022-11-26T21:51:08.856Z,14.08
2022-11-26T21:53:35.795Z,14.10
2022-11-26T21:56:07.493Z,14.03
2022-11-26T21:58:35.847Z,13.98
2022-11-26T22:01:10.042Z,14.00
2022-11-26T22:03:37.691Z,14.02
2022-11-26T22:06:04.497Z,13.93
2022-11-26T22:08:31.916Z,13.95
2022-11-26T22:10:58.571Z,13.98
2022-11-26T22:13:25.199Z,13.90
2022-11-26T22:15:51.986Z,13.84
2022-11-26T22:18:18.623Z,13.75
2022-11-26T22:20:52.341Z,13.82
2022-11-26T22:23:21.388Z,13.69
2022-11-26T22:25:48.414Z,13.68
2022-11-26T22:28:15.090Z,13.66
2022-11-26T22:30:41.659Z,13.50
2022-11-26T22:33:09.546Z,13.48
2022-11-26T22:35:36.536Z,13.38
2022-11-26T22:38:03.271Z,13.26
2022-11-26T22:40:29.954Z,13.26
2022-11-26T22:42:58.696Z,13.32
2022-11-26T22:45:26.134Z,13.26
2022-11-26T22:47:53.131Z,13.29
2022-11-26T22:50:20.598Z,13.27
2022-11-26T22:52:47.375Z,13.18
2022-11-26T22:55:14.154Z,13.21
2022-11-26T22:57:40.976Z,13.13
2022-11-26T23:00:14.386Z,13.13
2022-11-26T23:02:41.771Z,12.96
2022-11-26T23:05:08.764Z,12.95
2022-11-26T23:07:35.375Z,12.90
2022-11-26T23:10:02.097Z,12.78
2022-11-26T23:12:28.771Z,12.85
2022-11-26T23:14:55.364Z,12.72
2022-11-26T23:17:22.054Z,12.66
2022-11-26T23:19:50.837Z,12.77
2022-11-26T23:22:17.470Z,12.84
2022-11-26T23:24:44.147Z,12.75
2022-11-26T23:27:10.792Z,12.52
2022-11-26T23:29:37.534Z,12.62
2022-11-26T23:32:04.320Z,12.63
2022-11-26T23:34:30.978Z,12.42
2022-11-26T23:36:57.685Z,12.40
2022-11-26T23:39:24.441Z,12.34
2022-11-26T23:41:51.089Z,12.37
2022-11-26T23:44:17.764Z,12.35
2022-11-26T23:46:44.504Z,12.38
2022-11-26T23:49:11.145Z,12.48
2022-11-26T23:51:37.886Z,12.32
2022-11-26T23:54:04.600Z,12.43
2022-11-26T23:56:33.660Z,12.37
2022-11-26T23:59:03.024Z,12.33
